sensor_id;sensor_type;location;lat;lon;timestamp;temperature;humidity
35541;DHT22;21650;48.840;9.162;2022-07-29T00:01:50;21.40;99.90
35541;DHT22;21650;48.840;9.162;2022-07-29T00:04:18;21.30;99.90
35541;DHT22;21650;48.840;9.162;2022-07-29T00:06:43;21.10;99.90
35541;DHT22;21650;48.840;9.162;2022-07-29T00:09:09;21.10;99.90
35541;DHT22;21650;48.840;9.162;2022-07-29T00:11:35;21.10;99.90
35541;DHT22;21650;48.840;9.162;2022-07-29T00:14:00;21.00;99.90
35541;DHT22;21650;48.840;9.162;2022-07-29T00:16:26;21.00;99.90
35541;DHT22;21650;48.840;9.162;2022-07-29T00:18:52;21.10;99.90
35541;DHT22;21650;48.840;9.162;2022-07-29T00:21:17;20.70;99.90
35541;DHT22;21650;48.840;9.162;2022-07-29T00:23:43;20.80;99.90
35541;DHT22;21650;48.840;9.162;2022-07-29T00:26:08;20.90;99.90
35541;DHT22;21650;48.840;9.162;2022-07-29T00:28:34;20.90;99.90
35541;DHT22;21650;48.840;9.162;2022-07-29T00:31:00;21.00;99.90
35541;DHT22;21650;48.840;9.162;2022-07-29T00:33:25;21.00;99.90
35541;DHT22;21650;48.840;9.162;2022-07-29T00:35:51;21.00;99.90
35541;DHT22;21650;48.840;9.162;2022-07-29T00:38:19;21.00;99.90
35541;DHT22;21650;48.840;9.162;2022-07-29T00:40:46;20.80;99.90
35541;DHT22;21650;48.840;9.162;2022-07-29T00:43:13;20.70;99.90
35541;DHT22;21650;48.840;9.162;2022-07-29T00:45:39;20.70;99.90
35541;DHT22;21650;48.840;9.162;2022-07-29T00:48:05;20.80;99.90
35541;DHT22;21650;48.840;9.162;2022-07-29T00:50:32;20.80;99.90
35541;DHT22;21650;48.840;9.162;2022-07-29T00:52:58;20.70;99.90
35541;DHT22;21650;48.840;9.162;2022-07-29T00:55:24;20.70;99.90
35541;DHT22;21650;48.840;9.162;2022-07-29T00:57:50;20.70;99.90
35541;DHT22;21650;48.840;9.162;2022-07-29T01:00:21;20.70;99.90
35541;DHT22;21650;48.840;9.162;2022-07-29T01:02:48;20.70;99.90
35541;DHT22;21650;48.840;9.162;2022-07-29T01:05:16;20.80;99.90
35541;DHT22;21650;48.840;9.162;2022-07-29T01:07:44;20.80;99.90
35541;DHT22;21650;48.840;9.162;2022-07-29T01:10:12;20.80;99.90
35541;DHT22;21650;48.840;9.162;2022-07-29T01:12:39;20.80;99.90
35541;DHT22;21650;48.840;9.162;2022-07-29T01:15:07;20.80;99.90
35541;DHT22;21650;48.840;9.162;2022-07-29T01:17:39;20.80;99.90
35541;DHT22;21650;48.840;9.162;2022-07-29T01:25:54;20.80;99.90
35541;DHT22;21650;48.840;9.162;2022-07-29T01:31:16;20.90;99.90
35541;DHT22;21650;48.840;9.162;2022-07-29T01:33:45;20.90;99.90
35541;DHT22;21650;48.840;9.162;2022-07-29T01:36:37;20.90;99.90
35541;DHT22;21650;48.840;9.162;2022-07-29T01:39:17;20.70;99.90
35541;DHT22;21650;48.840;9.162;2022-07-29T01:41:50;20.70;99.90
35541;DHT22;21650;48.840;9.162;2022-07-29T01:44:53;20.70;99.90
35541;DHT22;21650;48.840;9.162;2022-07-29T01:47:25;20.70;99.90
35541;DHT22;21650;48.840;9.162;2022-07-29T01:49:54;20.70;99.90
35541;DHT22;21650;48.840;9.162;2022-07-29T01:52:46;20.70;99.90
35541;DHT22;21650;48.840;9.162;2022-07-29T01:55:15;20.70;99.90
35541;DHT22;21650;48.840;9.162;2022-07-29T01:57:45;20.70;99.90
35541;DHT22;21650;48.840;9.162;2022-07-29T02:00:13;20.70;99.90
35541;DHT22;21650;48.840;9.162;2022-07-29T02:02:42;20.70;99.90
35541;DHT22;21650;48.840;9.162;2022-07-29T02:05:11;20.60;99.90
35541;DHT22;21650;48.840;9.162;2022-07-29T02:07:40;20.60;99.90
35541;DHT22;21650;48.840;9.162;2022-07-29T02:10:08;20.70;99.90
35541;DHT22;21650;48.840;9.162;2022-07-29T02:12:35;20.70;99.90
35541;DHT22;21650;48.840;9.162;2022-07-29T02:15:03;20.70;99.90
35541;DHT22;21650;48.840;9.162;2022-07-29T02:17:45;20.70;99.90
35541;DHT22;21650;48.840;9.162;2022-07-29T02:20:14;20.70;99.90
35541;DHT22;21650;48.840;9.162;2022-07-29T02:22:41;20.60;99.90
35541;DHT22;21650;48.840;9.162;2022-07-29T02:25:09;20.60;99.90
35541;DHT22;21650;48.840;9.162;2022-07-29T02:27:37;20.70;99.90
35541;DHT22;21650;48.840;9.162;2022-07-29T02:30:05;20.60;99.90
35541;DHT22;21650;48.840;9.162;2022-07-29T02:35:01;20.50;99.90
35541;DHT22;21650;48.840;9.162;2022-07-29T02:37:27;20.20;99.90
35541;DHT22;21650;48.840;9.162;2022-07-29T02:39:55;20.20;99.90
35541;DHT22;21650;48.840;9.162;2022-07-29T02:42:24;20.10;99.90
35541;DHT22;21650;48.840;9.162;2022-07-29T02:44:52;20.10;99.90
35541;DHT22;21650;48.840;9.162;2022-07-29T02:47:27;19.90;99.90
35541;DHT22;21650;48.840;9.162;2022-07-29T02:50:20;19.90;99.90
35541;DHT22;21650;48.840;9.162;2022-07-29T02:52:54;20.10;99.90
35541;DHT22;21650;48.840;9.162;2022-07-29T02:55:41;19.90;99.90
35541;DHT22;21650;48.840;9.162;2022-07-29T02:58:19;19.80;99.90
35541;DHT22;21650;48.840;9.162;2022-07-29T03:00:49;19.80;99.90
35541;DHT22;21650;48.840;9.162;2022-07-29T03:03:18;19.80;99.90
35541;DHT22;21650;48.840;9.162;2022-07-29T03:05:44;20.00;99.90
35541;DHT22;21650;48.840;9.162;2022-07-29T03:08:11;19.90;99.90
35541;DHT22;21650;48.840;9.162;2022-07-29T03:10:44;20.10;99.90
35541;DHT22;21650;48.840;9.162;2022-07-29T03:13:11;20.20;99.90
35541;DHT22;21650;48.840;9.162;2022-07-29T03:15:38;20.10;99.90
35541;DHT22;21650;48.840;9.162;2022-07-29T03:18:05;20.00;99.90
35541;DHT22;21650;48.840;9.162;2022-07-29T03:20:31;20.10;99.90
35541;DHT22;21650;48.840;9.162;2022-07-29T03:22:57;19.90;99.90
35541;DHT22;21650;48.840;9.162;2022-07-29T03:25:23;19.70;99.90
35541;DHT22;21650;48.840;9.162;2022-07-29T03:27:49;19.60;99.90
35541;DHT22;21650;48.840;9.162;2022-07-29T03:30:15;19.80;99.90
35541;DHT22;21650;48.840;9.162;2022-07-29T03:32:41;19.90;99.90
35541;DHT22;21650;48.840;9.162;2022-07-29T03:35:07;20.00;99.90
35541;DHT22;21650;48.840;9.162;2022-07-29T03:37:33;20.10;99.90
35541;DHT22;21650;48.840;9.162;2022-07-29T03:40:05;20.10;99.90
35541;DHT22;21650;48.840;9.162;2022-07-29T03:42:32;20.10;99.90
35541;DHT22;21650;48.840;9.162;2022-07-29T03:45:01;20.00;99.90
35541;DHT22;21650;48.840;9.162;2022-07-29T03:47:30;20.10;99.90
35541;DHT22;21650;48.840;9.162;2022-07-29T03:49:59;20.00;99.90
35541;DHT22;21650;48.840;9.162;2022-07-29T03:52:25;19.90;99.90
35541;DHT22;21650;48.840;9.162;2022-07-29T03:54:51;20.00;99.90
35541;DHT22;21650;48.840;9.162;2022-07-29T03:57:19;19.70;99.90
35541;DHT22;21650;48.840;9.162;2022-07-29T03:59:46;19.60;99.90
35541;DHT22;21650;48.840;9.162;2022-07-29T04:02:13;19.40;99.90
35541;DHT22;21650;48.840;9.162;2022-07-29T04:04:38;19.50;99.90
35541;DHT22;21650;48.840;9.162;2022-07-29T04:07:04;19.70;99.90
35541;DHT22;21650;48.840;9.162;2022-07-29T04:09:30;19.70;99.90
35541;DHT22;21650;48.840;9.162;2022-07-29T04:11:56;19.60;99.90
35541;DHT22;21650;48.840;9.162;2022-07-29T04:14:21;19.60;99.90
35541;DHT22;21650;48.840;9.162;2022-07-29T04:16:47;19.80;99.90
35541;DHT22;21650;48.840;9.162;2022-07-29T04:19:13;19.80;99.90
35541;DHT22;21650;48.840;9.162;2022-07-29T04:21:41;19.70;99.90
35541;DHT22;21650;48.840;9.162;2022-07-29T04:24:08;19.80;99.90
35541;DHT22;21650;48.840;9.162;2022-07-29T04:26:34;19.90;99.90
35541;DHT22;21650;48.840;9.162;2022-07-29T04:29:00;19.90;99.90
35541;DHT22;21650;48.840;9.162;2022-07-29T04:31:26;19.90;99.90
35541;DHT22;21650;48.840;9.162;2022-07-29T04:33:52;19.90;99.90
35541;DHT22;21650;48.840;9.162;2022-07-29T04:36:17;19.90;99.90
35541;DHT22;21650;48.840;9.162;2022-07-29T04:38:43;20.00;99.90
35541;DHT22;21650;48.840;9.162;2022-07-29T04:41:09;20.00;99.90
35541;DHT22;21650;48.840;9.162;2022-07-29T04:43:37;19.90;99.90
35541;DHT22;21650;48.840;9.162;2022-07-29T04:46:03;19.90;99.90
35541;DHT22;21650;48.840;9.162;2022-07-29T04:48:31;19.90;99.90
35541;DHT22;21650;48.840;9.162;2022-07-29T04:50:57;19.90;99.90
35541;DHT22;21650;48.840;9.162;2022-07-29T04:53:23;20.00;99.90
35541;DHT22;21650;48.840;9.162;2022-07-29T04:55:48;20.00;99.90
35541;DHT22;21650;48.840;9.162;2022-07-29T04:58:14;19.90;99.90
35541;DHT22;21650;48.840;9.162;2022-07-29T05:00:40;19.80;99.90
35541;DHT22;21650;48.840;9.162;2022-07-29T05:03:05;19.80;99.90
35541;DHT22;21650;48.840;9.162;2022-07-29T05:05:31;19.90;99.90
35541;DHT22;21650;48.840;9.162;2022-07-29T05:07:57;20.00;99.90
35541;DHT22;21650;48.840;9.162;2022-07-29T05:10:23;19.80;99.90
35541;DHT22;21650;48.840;9.162;2022-07-29T05:12:48;19.60;99.90
35541;DHT22;21650;48.840;9.162;2022-07-29T05:15:14;19.60;99.90
35541;DHT22;21650;48.840;9.162;2022-07-29T05:17:39;19.60;99.90
35541;DHT22;21650;48.840;9.162;2022-07-29T05:20:06;19.80;99.90
35541;DHT22;21650;48.840;9.162;2022-07-29T05:22:31;19.90;99.90
35541;DHT22;21650;48.840;9.162;2022-07-29T05:24:57;20.00;99.90
35541;DHT22;21650;48.840;9.162;2022-07-29T05:27:23;20.10;99.90
35541;DHT22;21650;48.840;9.162;2022-07-29T05:29:48;20.20;99.90
35541;DHT22;21650;48.840;9.162;2022-07-29T05:32:14;20.30;99.90
35541;DHT22;21650;48.840;9.162;2022-07-29T05:34:40;20.50;99.90
35541;DHT22;21650;48.840;9.162;2022-07-29T05:37:06;20.60;99.90
35541;DHT22;21650;48.840;9.162;2022-07-29T05:39:32;20.70;99.90
35541;DHT22;21650;48.840;9.162;2022-07-29T05:41:57;20.70;99.90
35541;DHT22;21650;48.840;9.162;2022-07-29T05:44:23;20.80;99.90
35541;DHT22;21650;48.840;9.162;2022-07-29T05:46:49;20.90;99.90
35541;DHT22;21650;48.840;9.162;2022-07-29T05:49:14;21.00;99.90
35541;DHT22;21650;48.840;9.162;2022-07-29T05:51:40;21.10;99.90
35541;DHT22;21650;48.840;9.162;2022-07-29T05:54:06;21.20;99.90
35541;DHT22;21650;48.840;9.162;2022-07-29T05:56:32;21.30;99.90
35541;DHT22;21650;48.840;9.162;2022-07-29T05:58:57;21.40;99.90
35541;DHT22;21650;48.840;9.162;2022-07-29T06:01:24;21.50;99.90
35541;DHT22;21650;48.840;9.162;2022-07-29T06:03:49;21.50;99.90
35541;DHT22;21650;48.840;9.162;2022-07-29T06:06:15;21.70;99.90
35541;DHT22;21650;48.840;9.162;2022-07-29T06:08:41;21.70;99.90
35541;DHT22;21650;48.840;9.162;2022-07-29T06:11:07;21.80;99.90
35541;DHT22;21650;48.840;9.162;2022-07-29T06:13:34;22.00;99.90
35541;DHT22;21650;48.840;9.162;2022-07-29T06:16:01;22.10;99.90
35541;DHT22;21650;48.840;9.162;2022-07-29T06:18:29;22.10;99.90
35541;DHT22;21650;48.840;9.162;2022-07-29T06:20:56;22.20;99.90
35541;DHT22;21650;48.840;9.162;2022-07-29T06:23:25;22.20;99.90
35541;DHT22;21650;48.840;9.162;2022-07-29T06:25:56;22.10;99.90
35541;DHT22;21650;48.840;9.162;2022-07-29T06:28:30;22.20;99.90
35541;DHT22;21650;48.840;9.162;2022-07-29T06:31:01;22.10;99.90
35541;DHT22;21650;48.840;9.162;2022-07-29T06:33:28;22.20;99.90
35541;DHT22;21650;48.840;9.162;2022-07-29T06:35:55;22.30;99.90
35541;DHT22;21650;48.840;9.162;2022-07-29T06:38:22;22.50;99.90
35541;DHT22;21650;48.840;9.162;2022-07-29T06:40:49;22.60;99.90
35541;DHT22;21650;48.840;9.162;2022-07-29T06:43:45;22.30;99.90
35541;DHT22;21650;48.840;9.162;2022-07-29T06:46:14;22.30;99.90
35541;DHT22;21650;48.840;9.162;2022-07-29T06:48:47;22.30;99.90
35541;DHT22;21650;48.840;9.162;2022-07-29T06:51:17;22.40;99.90
35541;DHT22;21650;48.840;9.162;2022-07-29T06:53:44;22.40;99.90
35541;DHT22;21650;48.840;9.162;2022-07-29T06:56:13;22.30;99.90
35541;DHT22;21650;48.840;9.162;2022-07-29T06:58:41;22.40;99.90
35541;DHT22;21650;48.840;9.162;2022-07-29T07:01:16;22.50;99.90
35541;DHT22;21650;48.840;9.162;2022-07-29T07:03:43;22.70;99.90
35541;DHT22;21650;48.840;9.162;2022-07-29T07:06:13;22.70;99.90
35541;DHT22;21650;48.840;9.162;2022-07-29T07:12:00;22.80;99.90
35541;DHT22;21650;48.840;9.162;2022-07-29T07:14:26;22.60;99.90
35541;DHT22;21650;48.840;9.162;2022-07-29T07:16:53;22.70;99.90
35541;DHT22;21650;48.840;9.162;2022-07-29T07:19:19;22.80;99.90
35541;DHT22;21650;48.840;9.162;2022-07-29T07:21:44;22.90;99.90
35541;DHT22;21650;48.840;9.162;2022-07-29T07:24:10;22.80;99.90
35541;DHT22;21650;48.840;9.162;2022-07-29T07:26:35;22.90;99.90
35541;DHT22;21650;48.840;9.162;2022-07-29T07:29:01;23.00;99.90
35541;DHT22;21650;48.840;9.162;2022-07-29T07:31:26;23.20;99.90
35541;DHT22;21650;48.840;9.162;2022-07-29T07:33:52;23.20;99.90
35541;DHT22;21650;48.840;9.162;2022-07-29T07:36:19;23.20;99.90
35541;DHT22;21650;48.840;9.162;2022-07-29T07:38:44;23.10;99.90
35541;DHT22;21650;48.840;9.162;2022-07-29T07:41:10;22.90;99.90
35541;DHT22;21650;48.840;9.162;2022-07-29T07:43:35;23.00;99.90
35541;DHT22;21650;48.840;9.162;2022-07-29T07:46:01;23.10;99.90
35541;DHT22;21650;48.840;9.162;2022-07-29T07:48:26;23.20;99.90
35541;DHT22;21650;48.840;9.162;2022-07-29T07:50:52;23.40;99.90
35541;DHT22;21650;48.840;9.162;2022-07-29T07:53:17;23.60;99.90
35541;DHT22;21650;48.840;9.162;2022-07-29T07:55:45;24.00;99.90
35541;DHT22;21650;48.840;9.162;2022-07-29T07:58:10;24.20;99.90
35541;DHT22;21650;48.840;9.162;2022-07-29T08:00:36;24.20;99.90
35541;DHT22;21650;48.840;9.162;2022-07-29T08:03:02;24.10;99.90
35541;DHT22;21650;48.840;9.162;2022-07-29T08:05:28;24.10;99.90
35541;DHT22;21650;48.840;9.162;2022-07-29T08:07:53;24.00;99.90
35541;DHT22;21650;48.840;9.162;2022-07-29T08:10:19;24.00;99.90
35541;DHT22;21650;48.840;9.162;2022-07-29T08:13:04;24.20;99.90
35541;DHT22;21650;48.840;9.162;2022-07-29T08:15:30;24.30;99.90
35541;DHT22;21650;48.840;9.162;2022-07-29T08:17:55;24.20;99.90
35541;DHT22;21650;48.840;9.162;2022-07-29T08:20:21;24.10;99.90
35541;DHT22;21650;48.840;9.162;2022-07-29T08:22:46;24.20;99.90
35541;DHT22;21650;48.840;9.162;2022-07-29T08:25:12;24.40;99.90
35541;DHT22;21650;48.840;9.162;2022-07-29T08:27:37;24.60;99.90
35541;DHT22;21650;48.840;9.162;2022-07-29T08:30:03;24.60;99.90
35541;DHT22;21650;48.840;9.162;2022-07-29T08:32:29;24.70;99.90
35541;DHT22;21650;48.840;9.162;2022-07-29T08:34:56;25.20;99.90
35541;DHT22;21650;48.840;9.162;2022-07-29T08:37:22;25.30;99.90
35541;DHT22;21650;48.840;9.162;2022-07-29T08:39:47;25.10;99.90
35541;DHT22;21650;48.840;9.162;2022-07-29T08:42:13;25.10;99.90
35541;DHT22;21650;48.840;9.162;2022-07-29T08:44:39;25.30;99.90
35541;DHT22;21650;48.840;9.162;2022-07-29T08:47:05;25.60;99.90
35541;DHT22;21650;48.840;9.162;2022-07-29T08:49:33;25.90;99.90
35541;DHT22;21650;48.840;9.162;2022-07-29T08:51:59;26.20;99.90
35541;DHT22;21650;48.840;9.162;2022-07-29T08:54:25;26.20;99.90
35541;DHT22;21650;48.840;9.162;2022-07-29T08:56:51;26.20;99.90
35541;DHT22;21650;48.840;9.162;2022-07-29T08:59:20;26.70;99.90
35541;DHT22;21650;48.840;9.162;2022-07-29T09:01:48;27.10;99.90
35541;DHT22;21650;48.840;9.162;2022-07-29T09:04:15;27.40;99.90
35541;DHT22;21650;48.840;9.162;2022-07-29T09:06:44;27.40;98.80
35541;DHT22;21650;48.840;9.162;2022-07-29T09:09:11;27.60;98.20
35541;DHT22;21650;48.840;9.162;2022-07-29T09:11:40;26.50;97.90
35541;DHT22;21650;48.840;9.162;2022-07-29T09:14:05;26.50;98.40
35541;DHT22;21650;48.840;9.162;2022-07-29T09:16:45;26.50;97.90
35541;DHT22;21650;48.840;9.162;2022-07-29T09:19:30;26.50;98.50
35541;DHT22;21650;48.840;9.162;2022-07-29T09:21:57;26.50;98.30
35541;DHT22;21650;48.840;9.162;2022-07-29T09:24:25;26.40;98.70
35541;DHT22;21650;48.840;9.162;2022-07-29T09:26:51;26.70;98.70
35541;DHT22;21650;48.840;9.162;2022-07-29T09:29:19;26.80;99.00
35541;DHT22;21650;48.840;9.162;2022-07-29T09:31:50;27.00;99.30
35541;DHT22;21650;48.840;9.162;2022-07-29T09:34:27;27.30;99.50
35541;DHT22;21650;48.840;9.162;2022-07-29T09:36:54;27.20;97.00
35541;DHT22;21650;48.840;9.162;2022-07-29T09:39:32;27.00;98.80
35541;DHT22;21650;48.840;9.162;2022-07-29T09:42:03;26.70;96.80
35541;DHT22;21650;48.840;9.162;2022-07-29T09:47:08;26.90;98.00
35541;DHT22;21650;48.840;9.162;2022-07-29T09:49:54;26.80;98.00
35541;DHT22;21650;48.840;9.162;2022-07-29T09:52:20;27.00;97.20
35541;DHT22;21650;48.840;9.162;2022-07-29T09:54:47;27.20;97.70
35541;DHT22;21650;48.840;9.162;2022-07-29T09:57:28;26.90;97.60
35541;DHT22;21650;48.840;9.162;2022-07-29T10:00:05;27.30;98.60
35541;DHT22;21650;48.840;9.162;2022-07-29T10:02:34;27.40;97.80
35541;DHT22;21650;48.840;9.162;2022-07-29T10:05:01;27.50;96.80
35541;DHT22;21650;48.840;9.162;2022-07-29T10:07:52;27.40;97.20
35541;DHT22;21650;48.840;9.162;2022-07-29T10:10:40;26.90;96.60
35541;DHT22;21650;48.840;9.162;2022-07-29T10:13:11;26.50;97.30
35541;DHT22;21650;48.840;9.162;2022-07-29T10:15:39;26.20;98.20
35541;DHT22;21650;48.840;9.162;2022-07-29T10:18:08;25.80;97.40
35541;DHT22;21650;48.840;9.162;2022-07-29T10:20:34;25.60;98.00
35541;DHT22;21650;48.840;9.162;2022-07-29T10:23:00;25.60;98.90
35541;DHT22;21650;48.840;9.162;2022-07-29T10:25:26;25.70;98.80
35541;DHT22;21650;48.840;9.162;2022-07-29T10:27:52;25.70;99.30
35541;DHT22;21650;48.840;9.162;2022-07-29T10:30:19;25.80;99.90
35541;DHT22;21650;48.840;9.162;2022-07-29T10:38:42;25.70;99.70
35541;DHT22;21650;48.840;9.162;2022-07-29T10:44:09;25.60;98.30
35541;DHT22;21650;48.840;9.162;2022-07-29T10:46:39;25.60;98.60
35541;DHT22;21650;48.840;9.162;2022-07-29T10:49:15;25.50;98.10
35541;DHT22;21650;48.840;9.162;2022-07-29T10:51:54;25.40;98.40
35541;DHT22;21650;48.840;9.162;2022-07-29T10:59:43;25.10;98.40
35541;DHT22;21650;48.840;9.162;2022-07-29T11:07:24;24.90;99.30
35541;DHT22;21650;48.840;9.162;2022-07-29T11:15:10;24.70;99.90
35541;DHT22;21650;48.840;9.162;2022-07-29T11:22:58;24.60;99.90
35541;DHT22;21650;48.840;9.162;2022-07-29T11:25:24;24.50;99.90
35541;DHT22;21650;48.840;9.162;2022-07-29T11:27:51;24.50;99.90
35541;DHT22;21650;48.840;9.162;2022-07-29T11:30:17;24.60;99.90
35541;DHT22;21650;48.840;9.162;2022-07-29T11:32:44;24.70;99.90
35541;DHT22;21650;48.840;9.162;2022-07-29T11:35:23;24.80;99.90
35541;DHT22;21650;48.840;9.162;2022-07-29T11:38:26;24.90;99.90
35541;DHT22;21650;48.840;9.162;2022-07-29T11:43:57;25.00;99.90
35541;DHT22;21650;48.840;9.162;2022-07-29T11:46:48;25.00;99.90
35541;DHT22;21650;48.840;9.162;2022-07-29T11:49:24;25.10;99.90
35541;DHT22;21650;48.840;9.162;2022-07-29T11:51:52;25.10;99.90
35541;DHT22;21650;48.840;9.162;2022-07-29T11:54:24;25.20;99.90
35541;DHT22;21650;48.840;9.162;2022-07-29T11:56:52;25.20;99.90
35541;DHT22;21650;48.840;9.162;2022-07-29T11:59:19;25.20;99.90
35541;DHT22;21650;48.840;9.162;2022-07-29T12:01:58;25.20;99.90
35541;DHT22;21650;48.840;9.162;2022-07-29T12:04:25;25.20;99.90
35541;DHT22;21650;48.840;9.162;2022-07-29T12:06:55;25.30;99.90
35541;DHT22;21650;48.840;9.162;2022-07-29T12:09:22;25.40;99.90
35541;DHT22;21650;48.840;9.162;2022-07-29T12:11:48;25.70;99.90
35541;DHT22;21650;48.840;9.162;2022-07-29T12:14:27;25.80;99.90
35541;DHT22;21650;48.840;9.162;2022-07-29T12:16:53;25.90;99.90
35541;DHT22;21650;48.840;9.162;2022-07-29T12:19:18;25.90;99.90
35541;DHT22;21650;48.840;9.162;2022-07-29T12:21:45;26.10;99.90
35541;DHT22;21650;48.840;9.162;2022-07-29T12:24:10;26.50;99.90
35541;DHT22;21650;48.840;9.162;2022-07-29T12:26:36;26.50;99.90
35541;DHT22;21650;48.840;9.162;2022-07-29T12:29:16;26.20;99.90
35541;DHT22;21650;48.840;9.162;2022-07-29T12:31:43;26.00;99.90
35541;DHT22;21650;48.840;9.162;2022-07-29T12:34:10;25.90;99.90
35541;DHT22;21650;48.840;9.162;2022-07-29T12:36:37;25.80;99.90
35541;DHT22;21650;48.840;9.162;2022-07-29T12:39:04;25.70;99.90
35541;DHT22;21650;48.840;9.162;2022-07-29T12:41:30;25.60;99.90
35541;DHT22;21650;48.840;9.162;2022-07-29T12:43:55;25.60;99.90
35541;DHT22;21650;48.840;9.162;2022-07-29T12:46:21;25.60;99.90
35541;DHT22;21650;48.840;9.162;2022-07-29T12:48:51;25.40;99.90
35541;DHT22;21650;48.840;9.162;2022-07-29T12:51:34;25.40;99.90
35541;DHT22;21650;48.840;9.162;2022-07-29T12:54:09;25.30;99.90
35541;DHT22;21650;48.840;9.162;2022-07-29T12:56:36;25.10;99.90
35541;DHT22;21650;48.840;9.162;2022-07-29T12:59:17;25.10;99.90
35541;DHT22;21650;48.840;9.162;2022-07-29T13:01:44;24.90;99.90
35541;DHT22;21650;48.840;9.162;2022-07-29T13:04:25;24.80;99.90
35541;DHT22;21650;48.840;9.162;2022-07-29T13:09:40;24.50;99.90
35541;DHT22;21650;48.840;9.162;2022-07-29T13:12:08;24.50;99.90
35541;DHT22;21650;48.840;9.162;2022-07-29T13:14:46;24.30;99.90
35541;DHT22;21650;48.840;9.162;2022-07-29T13:17:14;24.30;99.90
35541;DHT22;21650;48.840;9.162;2022-07-29T13:19:45;24.30;99.90
35541;DHT22;21650;48.840;9.162;2022-07-29T13:22:14;24.30;99.90
35541;DHT22;21650;48.840;9.162;2022-07-29T13:25:02;24.20;99.90
35541;DHT22;21650;48.840;9.162;2022-07-29T13:27:30;24.20;99.90
35541;DHT22;21650;48.840;9.162;2022-07-29T13:29:57;24.20;99.90
35541;DHT22;21650;48.840;9.162;2022-07-29T13:32:25;24.20;99.90
35541;DHT22;21650;48.840;9.162;2022-07-29T13:34:51;24.10;99.90
35541;DHT22;21650;48.840;9.162;2022-07-29T13:37:19;24.20;99.90
35541;DHT22;21650;48.840;9.162;2022-07-29T13:39:45;24.10;99.90
35541;DHT22;21650;48.840;9.162;2022-07-29T13:42:11;24.00;99.90
35541;DHT22;21650;48.840;9.162;2022-07-29T13:44:41;24.10;99.90
35541;DHT22;21650;48.840;9.162;2022-07-29T13:47:07;24.10;99.90
35541;DHT22;21650;48.840;9.162;2022-07-29T13:49:33;24.40;99.90
35541;DHT22;21650;48.840;9.162;2022-07-29T13:51:59;24.90;99.90
35541;DHT22;21650;48.840;9.162;2022-07-29T13:54:24;25.20;99.90
35541;DHT22;21650;48.840;9.162;2022-07-29T13:56:51;25.60;99.90
35541;DHT22;21650;48.840;9.162;2022-07-29T13:59:16;25.50;99.90
35541;DHT22;21650;48.840;9.162;2022-07-29T14:01:42;25.60;99.90
35541;DHT22;21650;48.840;9.162;2022-07-29T14:04:08;25.70;99.90
35541;DHT22;21650;48.840;9.162;2022-07-29T14:06:34;25.60;99.90
35541;DHT22;21650;48.840;9.162;2022-07-29T14:09:00;25.50;99.90
35541;DHT22;21650;48.840;9.162;2022-07-29T14:11:25;25.60;99.90
35541;DHT22;21650;48.840;9.162;2022-07-29T14:13:51;25.60;99.90
35541;DHT22;21650;48.840;9.162;2022-07-29T14:16:16;25.70;99.90
35541;DHT22;21650;48.840;9.162;2022-07-29T14:18:42;25.80;99.90
35541;DHT22;21650;48.840;9.162;2022-07-29T14:21:08;25.80;99.90
35541;DHT22;21650;48.840;9.162;2022-07-29T14:23:34;25.80;99.90
35541;DHT22;21650;48.840;9.162;2022-07-29T14:26:00;25.70;99.90
35541;DHT22;21650;48.840;9.162;2022-07-29T14:28:26;25.70;99.90
35541;DHT22;21650;48.840;9.162;2022-07-29T14:30:51;25.70;99.90
35541;DHT22;21650;48.840;9.162;2022-07-29T14:33:17;25.80;99.90
35541;DHT22;21650;48.840;9.162;2022-07-29T14:35:42;25.80;99.90
35541;DHT22;21650;48.840;9.162;2022-07-29T14:38:09;25.80;99.90
35541;DHT22;21650;48.840;9.162;2022-07-29T14:40:34;25.80;99.90
35541;DHT22;21650;48.840;9.162;2022-07-29T14:43:00;25.90;99.90
35541;DHT22;21650;48.840;9.162;2022-07-29T14:45:26;25.80;99.90
35541;DHT22;21650;48.840;9.162;2022-07-29T14:47:53;25.90;99.90
35541;DHT22;21650;48.840;9.162;2022-07-29T14:50:18;26.00;99.90
35541;DHT22;21650;48.840;9.162;2022-07-29T14:52:44;26.10;99.90
35541;DHT22;21650;48.840;9.162;2022-07-29T14:55:10;26.20;99.90
35541;DHT22;21650;48.840;9.162;2022-07-29T14:57:35;26.20;99.90
35541;DHT22;21650;48.840;9.162;2022-07-29T15:00:02;26.30;99.90
35541;DHT22;21650;48.840;9.162;2022-07-29T15:02:28;26.20;99.90
35541;DHT22;21650;48.840;9.162;2022-07-29T15:04:54;26.20;99.90
35541;DHT22;21650;48.840;9.162;2022-07-29T15:07:19;26.10;99.90
35541;DHT22;21650;48.840;9.162;2022-07-29T15:09:45;26.30;99.90
35541;DHT22;21650;48.840;9.162;2022-07-29T15:12:10;26.50;99.90
35541;DHT22;21650;48.840;9.162;2022-07-29T15:14:36;26.50;99.90
35541;DHT22;21650;48.840;9.162;2022-07-29T15:17:02;26.50;99.90
35541;DHT22;21650;48.840;9.162;2022-07-29T15:19:27;26.30;99.90
35541;DHT22;21650;48.840;9.162;2022-07-29T15:21:53;26.50;99.90
35541;DHT22;21650;48.840;9.162;2022-07-29T15:24:18;26.40;98.60
35541;DHT22;21650;48.840;9.162;2022-07-29T15:26:44;26.30;96.80
35541;DHT22;21650;48.840;9.162;2022-07-29T15:29:10;26.30;95.60
35541;DHT22;21650;48.840;9.162;2022-07-29T15:31:35;26.20;97.30
35541;DHT22;21650;48.840;9.162;2022-07-29T15:34:01;26.20;96.40
35541;DHT22;21650;48.840;9.162;2022-07-29T15:36:27;26.20;94.20
35541;DHT22;21650;48.840;9.162;2022-07-29T15:38:53;26.30;95.70
35541;DHT22;21650;48.840;9.162;2022-07-29T15:41:19;26.30;94.50
35541;DHT22;21650;48.840;9.162;2022-07-29T15:43:44;26.20;92.90
35541;DHT22;21650;48.840;9.162;2022-07-29T15:46:13;26.20;93.30
35541;DHT22;21650;48.840;9.162;2022-07-29T15:48:57;26.20;94.00
35541;DHT22;21650;48.840;9.162;2022-07-29T15:51:23;26.20;90.70
35541;DHT22;21650;48.840;9.162;2022-07-29T15:53:49;26.20;91.40
35541;DHT22;21650;48.840;9.162;2022-07-29T15:56:15;26.20;89.90
35541;DHT22;21650;48.840;9.162;2022-07-29T15:58:40;26.20;90.00
35541;DHT22;21650;48.840;9.162;2022-07-29T16:01:06;26.20;89.20
35541;DHT22;21650;48.840;9.162;2022-07-29T16:03:31;26.20;88.40
35541;DHT22;21650;48.840;9.162;2022-07-29T16:05:57;26.20;89.70
35541;DHT22;21650;48.840;9.162;2022-07-29T16:08:23;26.20;89.00
35541;DHT22;21650;48.840;9.162;2022-07-29T16:10:48;26.30;90.90
35541;DHT22;21650;48.840;9.162;2022-07-29T16:13:14;26.30;86.70
35541;DHT22;21650;48.840;9.162;2022-07-29T16:15:40;26.30;86.50
35541;DHT22;21650;48.840;9.162;2022-07-29T16:18:05;26.30;86.40
35541;DHT22;21650;48.840;9.162;2022-07-29T16:20:32;26.30;85.20
35541;DHT22;21650;48.840;9.162;2022-07-29T16:22:57;26.30;85.70
35541;DHT22;21650;48.840;9.162;2022-07-29T16:25:23;26.20;86.30
35541;DHT22;21650;48.840;9.162;2022-07-29T16:27:48;26.20;86.20
35541;DHT22;21650;48.840;9.162;2022-07-29T16:30:14;26.20;86.00